Time;durP1;ratioP1;P1;durP2;ratioP2;P2;SDS_P1;SDS_P2;PMS_P1;PMS_P2;Temp;Humidity;BMP_temperature;BMP_pressure;BME280_temperature;BME280_humidity;BME280_pressure;Samples;Min_cycle;Max_cycle;Signal;HPM_P1;HPM_P2
2024/01/06 00:02:21;;;;;;;;;;;9.30;99.90;;;;;;7331061;19;110440;-68
2024/01/06 00:04:48;;;;;;;;;;;9.20;99.90;;;;;;7333407;19;108951;-68
2024/01/06 00:07:15;;;;;;;;;;;9.30;99.90;;;;;;7328890;19;108954;-68
2024/01/06 00:09:43;;;;;;;;;;;9.20;99.90;;;;;;7330981;19;109682;-70
2024/01/06 00:12:10;;;;;;;;;;;9.30;99.90;;;;;;7336629;19;108492;-71
2024/01/06 00:14:37;;;;;;;;;;;9.20;99.90;;;;;;7332313;19;109573;-76
2024/01/06 00:17:04;;;;;;;;;;;9.20;99.90;;;;;;7333054;19;108730;-75
2024/01/06 00:19:31;;;;;;;;;;;9.20;99.90;;;;;;7332126;19;110203;-75
2024/01/06 00:22:00;;;;;;;;;;;9.20;99.90;;;;;;7329923;19;111516;-71
2024/01/06 00:24:27;;;;;;;;;;;9.20;99.90;;;;;;7330434;19;110961;-78
2024/01/06 00:26:55;;;;;;;;;;;9.20;99.90;;;;;;7329576;19;108722;-75
2024/01/06 00:29:22;;;;;;;;;;;9.20;99.90;;;;;;7333116;19;109485;-69
2024/01/06 00:31:49;;;;;;;;;;;9.20;99.90;;;;;;7333497;19;108352;-68
2024/01/06 00:34:16;;;;;;;;;;;9.20;99.90;;;;;;7332736;19;110651;-68
2024/01/06 00:36:44;;;;;;;;;;;9.30;99.90;;;;;;7330477;19;109192;-68
2024/01/06 00:39:11;;;;;;;;;;;9.30;99.90;;;;;;7329832;19;109255;-68
2024/01/06 00:41:38;;;;;;;;;;;9.30;99.90;;;;;;7329919;19;112687;-67
2024/01/06 00:44:06;;;;;;;;;;;9.20;99.90;;;;;;7333058;19;108978;-70
2024/01/06 00:46:33;;;;;;;;;;;9.20;99.90;;;;;;7331631;19;109765;-68
2024/01/06 00:48:59;;;;;;;;;;;9.20;99.90;;;;;;7332663;19;109252;-68
2024/01/06 00:51:27;;;;;;;;;;;9.20;99.90;;;;;;7328607;19;109671;-68
2024/01/06 00:53:54;;;;;;;;;;;9.30;99.90;;;;;;7333015;19;112806;-69
2024/01/06 00:56:21;;;;;;;;;;;9.20;99.90;;;;;;7336807;19;109802;-68
2024/01/06 00:58:48;;;;;;;;;;;9.20;99.90;;;;;;7330226;19;108810;-68
2024/01/06 01:01:15;;;;;;;;;;;9.20;99.90;;;;;;7330600;19;112348;-68
2024/01/06 01:03:42;;;;;;;;;;;9.20;99.90;;;;;;7329894;19;109125;-70
2024/01/06 01:06:10;;;;;;;;;;;9.20;99.90;;;;;;7329239;19;109503;-69
2024/01/06 01:08:37;;;;;;;;;;;9.20;99.90;;;;;;7327731;19;109336;-68
2024/01/06 01:11:04;;;;;;;;;;;9.20;99.90;;;;;;7328471;19;108536;-68
2024/01/06 01:13:31;;;;;;;;;;;9.20;99.90;;;;;;7328415;19;109356;-68
2024/01/06 01:15:59;;;;;;;;;;;9.20;99.90;;;;;;7332631;19;109515;-67
2024/01/06 01:18:26;;;;;;;;;;;9.20;99.90;;;;;;7335244;19;109097;-68
2024/01/06 01:20:53;;;;;;;;;;;9.20;99.90;;;;;;7329340;19;110277;-68
2024/01/06 01:23:20;;;;;;;;;;;9.20;99.90;;;;;;7331892;19;108702;-68
2024/01/06 01:25:47;;;;;;;;;;;9.20;99.90;;;;;;7329549;19;109712;-68
2024/01/06 01:28:14;;;;;;;;;;;9.20;99.90;;;;;;7329196;19;109732;-67
2024/01/06 01:30:42;;;;;;;;;;;9.20;99.90;;;;;;7326152;19;110155;-67
2024/01/06 01:33:09;;;;;;;;;;;9.20;99.90;;;;;;7328608;19;109375;-67
2024/01/06 01:35:37;;;;;;;;;;;9.20;99.90;;;;;;7327202;19;109503;-67
2024/01/06 01:38:07;;;;;;;;;;;9.10;99.90;;;;;;7335768;19;108522;-67
2024/01/06 01:40:34;;;;;;;;;;;9.10;99.90;;;;;;7326236;19;110155;-67
2024/01/06 01:43:01;;;;;;;;;;;9.10;99.90;;;;;;7330068;19;111474;-67
2024/01/06 01:45:28;;;;;;;;;;;9.10;99.90;;;;;;7326961;19;111749;-67
2024/01/06 01:47:55;;;;;;;;;;;9.10;99.90;;;;;;7328608;19;110780;-67
2024/01/06 01:50:23;;;;;;;;;;;9.10;99.90;;;;;;7330005;19;110393;-67
2024/01/06 01:52:50;;;;;;;;;;;9.00;99.90;;;;;;7331423;19;108696;-67
2024/01/06 01:55:17;;;;;;;;;;;9.00;99.90;;;;;;7325836;19;111066;-67
2024/01/06 01:57:44;;;;;;;;;;;9.00;99.90;;;;;;7325228;19;109039;-67
2024/01/06 02:00:11;;;;;;;;;;;8.90;99.90;;;;;;7334482;19;109125;-67
2024/01/06 02:02:39;;;;;;;;;;;8.90;99.90;;;;;;7330234;19;108852;-67
2024/01/06 02:05:06;;;;;;;;;;;8.90;99.90;;;;;;7328774;19;110029;-67
2024/01/06 02:07:33;;;;;;;;;;;8.90;99.90;;;;;;7329671;19;110487;-67
2024/01/06 02:10:01;;;;;;;;;;;8.80;99.90;;;;;;7330694;19;108587;-67
2024/01/06 02:12:28;;;;;;;;;;;8.80;99.90;;;;;;7329016;19;109020;-68
2024/01/06 02:14:55;;;;;;;;;;;8.80;99.90;;;;;;7330370;19;110868;-67
2024/01/06 02:17:22;;;;;;;;;;;8.80;99.90;;;;;;7329095;19;108746;-67
2024/01/06 02:19:49;;;;;;;;;;;8.70;99.90;;;;;;7331259;19;108886;-67
2024/01/06 02:22:17;;;;;;;;;;;8.60;99.90;;;;;;7333043;19;112941;-67
2024/01/06 02:24:44;;;;;;;;;;;8.60;99.90;;;;;;7328550;19;110033;-67
2024/01/06 02:27:11;;;;;;;;;;;8.60;99.90;;;;;;7324600;19;109465;-67
2024/01/06 02:29:38;;;;;;;;;;;8.50;99.90;;;;;;7326934;19;110852;-67
2024/01/06 02:32:05;;;;;;;;;;;8.50;99.90;;;;;;7331736;19;109607;-67
2024/01/06 02:34:32;;;;;;;;;;;8.50;99.90;;;;;;7328207;19;109461;-67
2024/01/06 02:37:00;;;;;;;;;;;8.50;99.90;;;;;;7329492;19;112102;-67
2024/01/06 02:39:27;;;;;;;;;;;8.50;99.90;;;;;;7326626;19;109589;-67
2024/01/06 02:41:54;;;;;;;;;;;8.40;99.90;;;;;;7329191;19;109204;-67
2024/01/06 02:44:21;;;;;;;;;;;8.40;99.90;;;;;;7335023;19;111033;-67
2024/01/06 02:46:48;;;;;;;;;;;8.40;99.90;;;;;;7329759;19;109147;-67
2024/01/06 02:49:15;;;;;;;;;;;8.30;99.90;;;;;;7330244;19;108600;-67
2024/01/06 02:51:43;;;;;;;;;;;8.30;99.90;;;;;;7329668;19;109163;-67
2024/01/06 02:54:11;;;;;;;;;;;8.30;99.90;;;;;;7325093;19;110098;-67
2024/01/06 02:56:38;;;;;;;;;;;8.30;99.90;;;;;;7327793;19;109776;-67
2024/01/06 02:59:05;;;;;;;;;;;8.20;99.90;;;;;;7327982;19;108615;-67
2024/01/06 03:01:33;;;;;;;;;;;8.30;99.90;;;;;;7326329;19;109400;-67
2024/01/06 03:04:00;;;;;;;;;;;8.30;99.90;;;;;;7329577;19;108461;-67
2024/01/06 03:06:27;;;;;;;;;;;8.30;99.90;;;;;;7333664;19;109164;-67
2024/01/06 03:08:55;;;;;;;;;;;8.30;99.90;;;;;;7324335;19;108407;-67
2024/01/06 03:11:22;;;;;;;;;;;8.30;99.90;;;;;;7330221;19;109136;-67
2024/01/06 03:13:49;;;;;;;;;;;8.30;99.90;;;;;;7325614;19;109753;-67
2024/01/06 03:16:16;;;;;;;;;;;8.30;99.90;;;;;;7336466;19;109812;-67
2024/01/06 03:18:43;;;;;;;;;;;8.30;99.90;;;;;;7335742;19;108939;-67
2024/01/06 03:21:18;;;;;;;;;;;8.30;99.90;;;;;;7336402;19;110278;-67
2024/01/06 03:23:45;;;;;;;;;;;8.30;99.90;;;;;;7336956;19;109176;-67
2024/01/06 03:26:12;;;;;;;;;;;8.30;99.90;;;;;;7336640;19;109224;-67
2024/01/06 03:28:39;;;;;;;;;;;8.30;99.90;;;;;;7337286;19;108970;-67
2024/01/06 03:31:06;;;;;;;;;;;8.20;99.90;;;;;;7331749;19;108981;-67
2024/01/06 03:33:33;;;;;;;;;;;8.20;99.90;;;;;;7337313;19;109946;-67
2024/01/06 03:36:05;;;;;;;;;;;8.20;99.90;;;;;;7335858;19;109760;-67
2024/01/06 03:38:32;;;;;;;;;;;8.20;99.90;;;;;;7332849;19;108477;-69
2024/01/06 03:40:59;;;;;;;;;;;8.10;99.90;;;;;;7330297;19;110142;-68
2024/01/06 03:43:26;;;;;;;;;;;8.20;99.90;;;;;;7334407;19;109388;-69
2024/01/06 03:45:55;;;;;;;;;;;8.20;99.90;;;;;;7332249;19;109444;-68
2024/01/06 03:50:59;;;;;;;;;;;8.10;99.90;;;;;;7332351;19;108960;-68
2024/01/06 03:53:26;;;;;;;;;;;8.10;99.90;;;;;;7333363;19;111164;-68
2024/01/06 03:55:53;;;;;;;;;;;8.10;99.90;;;;;;7333418;19;108956;-68
2024/01/06 03:58:20;;;;;;;;;;;8.10;99.90;;;;;;7333297;19;110968;-68
2024/01/06 04:00:47;;;;;;;;;;;8.00;99.90;;;;;;7328809;19;110300;-68
2024/01/06 04:03:14;;;;;;;;;;;8.00;99.90;;;;;;7333650;19;108919;-68
2024/01/06 04:05:41;;;;;;;;;;;8.00;99.90;;;;;;7333195;19;109333;-68
2024/01/06 04:08:08;;;;;;;;;;;8.00;99.90;;;;;;7332357;19;109348;-68
2024/01/06 04:10:35;;;;;;;;;;;8.00;99.90;;;;;;7337093;19;111060;-68
2024/01/06 04:13:04;;;;;;;;;;;8.00;99.90;;;;;;7333975;19;109739;-68
2024/01/06 04:15:31;;;;;;;;;;;8.00;99.90;;;;;;7331481;19;109106;-68
2024/01/06 04:18:01;;;;;;;;;;;7.70;99.90;;;;;;7330202;19;112537;-68
2024/01/06 04:20:28;;;;;;;;;;;7.60;99.90;;;;;;7332076;19;109247;-68
2024/01/06 04:22:55;;;;;;;;;;;7.60;99.90;;;;;;7331220;19;110404;-68
2024/01/06 04:25:22;;;;;;;;;;;7.60;99.90;;;;;;7333048;19;109792;-68
2024/01/06 04:27:49;;;;;;;;;;;7.70;99.90;;;;;;7330519;19;109796;-68
2024/01/06 04:30:17;;;;;;;;;;;7.70;99.90;;;;;;7330858;19;108518;-68
2024/01/06 04:32:45;;;;;;;;;;;7.60;99.90;;;;;;7339611;19;109163;-68
2024/01/06 04:35:12;;;;;;;;;;;7.60;99.90;;;;;;7331724;19;108935;-68
2024/01/06 04:37:39;;;;;;;;;;;7.60;99.90;;;;;;7333263;19;109054;-69
2024/01/06 04:40:07;;;;;;;;;;;7.60;99.90;;;;;;7332785;19;110167;-67
2024/01/06 04:42:34;;;;;;;;;;;7.60;99.90;;;;;;7332819;19;113340;-68
2024/01/06 04:45:02;;;;;;;;;;;7.60;99.90;;;;;;7332713;19;110976;-68
2024/01/06 04:47:30;;;;;;;;;;;7.60;99.90;;;;;;7333146;19;111323;-68
2024/01/06 04:49:57;;;;;;;;;;;7.60;99.90;;;;;;7332467;19;108864;-68
2024/01/06 04:52:24;;;;;;;;;;;7.50;99.90;;;;;;7335043;19;109741;-67
2024/01/06 04:54:51;;;;;;;;;;;7.50;99.90;;;;;;7338401;19;109660;-68
2024/01/06 04:57:20;;;;;;;;;;;7.50;99.90;;;;;;7332265;19;108604;-68
2024/01/06 04:59:47;;;;;;;;;;;7.50;99.90;;;;;;7330212;19;110170;-68
2024/01/06 05:02:15;;;;;;;;;;;7.50;99.90;;;;;;7330486;19;111553;-77
2024/01/06 05:04:42;;;;;;;;;;;7.50;99.90;;;;;;7329742;19;108619;-73
2024/01/06 05:07:09;;;;;;;;;;;7.50;99.90;;;;;;7333309;19;109357;-71
2024/01/06 05:09:36;;;;;;;;;;;7.50;99.90;;;;;;7332265;19;109570;-70
2024/01/06 05:12:04;;;;;;;;;;;7.50;99.90;;;;;;7330868;19;109208;-75
2024/01/06 05:14:31;;;;;;;;;;;7.50;99.90;;;;;;7333009;19;109283;-74
2024/01/06 05:16:58;;;;;;;;;;;7.50;99.90;;;;;;7340542;19;109211;-75
2024/01/06 05:19:25;;;;;;;;;;;7.50;99.90;;;;;;7332747;19;110577;-68
2024/01/06 05:21:53;;;;;;;;;;;7.50;99.90;;;;;;7329618;19;109278;-69
2024/01/06 05:24:20;;;;;;;;;;;7.50;99.90;;;;;;7332112;19;109480;-68
2024/01/06 05:26:47;;;;;;;;;;;7.50;99.90;;;;;;7329257;19;109100;-68
2024/01/06 05:29:15;;;;;;;;;;;7.50;99.90;;;;;;7332879;19;113649;-68
2024/01/06 05:31:47;;;;;;;;;;;7.50;99.90;;;;;;7331825;19;108806;-68
2024/01/06 05:34:14;;;;;;;;;;;7.50;99.90;;;;;;7332934;19;109102;-68
2024/01/06 05:36:41;;;;;;;;;;;7.50;99.90;;;;;;7338902;19;108486;-68
2024/01/06 05:39:09;;;;;;;;;;;7.50;99.90;;;;;;7331480;19;109882;-68
2024/01/06 05:41:39;;;;;;;;;;;7.50;99.90;;;;;;7331884;19;108644;-69
2024/01/06 05:44:07;;;;;;;;;;;7.50;99.90;;;;;;7330545;19;111194;-68
2024/01/06 05:46:34;;;;;;;;;;;7.50;99.90;;;;;;7331735;19;109108;-69
2024/01/06 05:49:01;;;;;;;;;;;7.50;99.90;;;;;;7329797;19;109414;-68
2024/01/06 05:51:28;;;;;;;;;;;7.50;99.90;;;;;;7331979;19;109230;-68
2024/01/06 05:53:56;;;;;;;;;;;7.50;99.90;;;;;;7331091;19;111886;-69
2024/01/06 05:56:26;;;;;;;;;;;7.50;99.90;;;;;;7331561;19;109127;-69
2024/01/06 05:58:53;;;;;;;;;;;7.50;99.90;;;;;;7334861;19;108369;-69
2024/01/06 06:01:21;;;;;;;;;;;7.40;99.90;;;;;;7329979;19;109664;-74
2024/01/06 06:03:50;;;;;;;;;;;7.40;99.90;;;;;;7329866;19;109593;-70
2024/01/06 06:06:18;;;;;;;;;;;7.40;99.90;;;;;;7326328;19;109543;-72
2024/01/06 06:08:48;;;;;;;;;;;7.30;99.90;;;;;;7330757;19;108835;-69
2024/01/06 06:11:16;;;;;;;;;;;7.20;99.90;;;;;;7328507;19;110194;-69
2024/01/06 06:13:43;;;;;;;;;;;7.20;99.90;;;;;;7329520;19;109278;-67
2024/01/06 06:16:13;;;;;;;;;;;7.20;99.90;;;;;;7324049;19;108997;-68
2024/01/06 06:18:40;;;;;;;;;;;7.10;99.90;;;;;;7330683;19;109164;-67
2024/01/06 06:21:08;;;;;;;;;;;7.10;99.90;;;;;;7334929;19;109543;-69
2024/01/06 06:23:35;;;;;;;;;;;7.10;99.90;;;;;;7329210;19;110705;-68
2024/01/06 06:26:05;;;;;;;;;;;7.00;99.90;;;;;;7330371;19;109616;-69
2024/01/06 06:28:33;;;;;;;;;;;7.00;99.90;;;;;;7328674;19;109827;-67
2024/01/06 06:31:01;;;;;;;;;;;7.00;99.90;;;;;;7329320;19;108767;-67
2024/01/06 06:33:29;;;;;;;;;;;6.90;99.90;;;;;;7329278;19;112713;-69
2024/01/06 06:35:57;;;;;;;;;;;6.90;99.90;;;;;;7329843;19;108959;-67
2024/01/06 06:38:27;;;;;;;;;;;6.90;99.90;;;;;;7327989;19;110194;-67
2024/01/06 06:40:54;;;;;;;;;;;6.90;99.90;;;;;;7325016;19;108893;-68
2024/01/06 06:43:21;;;;;;;;;;;6.90;99.90;;;;;;7336626;19;110316;-67
2024/01/06 06:45:48;;;;;;;;;;;6.90;99.90;;;;;;7324697;19;111027;-67
2024/01/06 06:48:15;;;;;;;;;;;6.90;99.90;;;;;;7329380;19;110519;-67
2024/01/06 06:50:43;;;;;;;;;;;6.90;99.90;;;;;;7332347;19;110379;-67
2024/01/06 06:53:10;;;;;;;;;;;7.00;99.90;;;;;;7335840;19;110665;-68
2024/01/06 06:55:37;;;;;;;;;;;7.00;99.90;;;;;;7334122;19;109901;-68
2024/01/06 06:58:05;;;;;;;;;;;6.90;99.90;;;;;;7335228;19;109187;-67
2024/01/06 07:00:32;;;;;;;;;;;6.80;99.90;;;;;;7332373;19;109753;-67
2024/01/06 07:03:00;;;;;;;;;;;6.70;99.90;;;;;;7331835;19;110745;-68
2024/01/06 07:05:28;;;;;;;;;;;6.70;99.90;;;;;;7341521;19;108730;-67
2024/01/06 07:07:56;;;;;;;;;;;6.70;99.90;;;;;;7331546;19;110911;-68
2024/01/06 07:10:23;;;;;;;;;;;6.70;99.90;;;;;;7332967;19;108889;-68
2024/01/06 07:12:51;;;;;;;;;;;6.70;99.90;;;;;;7330336;19;109411;-68
2024/01/06 07:15:18;;;;;;;;;;;6.80;99.90;;;;;;7333977;19;108916;-67
2024/01/06 07:17:46;;;;;;;;;;;6.80;99.90;;;;;;7332461;19;108567;-67
2024/01/06 07:20:13;;;;;;;;;;;6.70;99.90;;;;;;7330106;19;110606;-68
2024/01/06 07:22:41;;;;;;;;;;;6.80;99.90;;;;;;7332745;19;109528;-68
2024/01/06 07:25:08;;;;;;;;;;;6.80;99.90;;;;;;7331657;19;108613;-68
2024/01/06 07:27:35;;;;;;;;;;;6.80;99.90;;;;;;7339742;19;110068;-68
2024/01/06 07:30:02;;;;;;;;;;;6.80;99.90;;;;;;7332280;19;108666;-68
2024/01/06 07:32:30;;;;;;;;;;;6.80;99.90;;;;;;7332894;19;109687;-67
2024/01/06 07:34:57;;;;;;;;;;;6.70;99.90;;;;;;7328489;19;110395;-68
2024/01/06 07:37:26;;;;;;;;;;;6.80;99.90;;;;;;7331091;19;110613;-68
2024/01/06 07:39:53;;;;;;;;;;;6.80;99.90;;;;;;7330729;19;110067;-68
2024/01/06 07:42:20;;;;;;;;;;;6.80;99.90;;;;;;7332775;19;110571;-68
2024/01/06 07:44:47;;;;;;;;;;;6.80;99.90;;;;;;7329645;19;110675;-68
2024/01/06 07:47:14;;;;;;;;;;;6.80;99.90;;;;;;7337215;19;110580;-68
2024/01/06 07:49:41;;;;;;;;;;;6.90;99.90;;;;;;7332232;19;108907;-68
2024/01/06 07:52:08;;;;;;;;;;;6.80;99.90;;;;;;7330563;19;109257;-68
2024/01/06 07:54:35;;;;;;;;;;;6.90;99.90;;;;;;7332023;19;111101;-68
2024/01/06 07:57:03;;;;;;;;;;;6.90;99.90;;;;;;7329918;19;109104;-68
2024/01/06 07:59:30;;;;;;;;;;;6.80;99.90;;;;;;7333293;19;111034;-68
2024/01/06 08:01:58;;;;;;;;;;;6.80;99.90;;;;;;7329687;19;109584;-67
2024/01/06 08:04:25;;;;;;;;;;;6.70;99.90;;;;;;7331364;19;112036;-70
2024/01/06 08:06:52;;;;;;;;;;;6.70;99.90;;;;;;7331027;19;109016;-67
2024/01/06 08:09:23;;;;;;;;;;;6.70;99.90;;;;;;7339122;19;109389;-67
2024/01/06 08:11:51;;;;;;;;;;;6.70;99.90;;;;;;7328678;19;109333;-67
2024/01/06 08:14:18;;;;;;;;;;;6.60;99.90;;;;;;7330919;19;108997;-68
2024/01/06 08:16:45;;;;;;;;;;;6.70;99.90;;;;;;7327298;19;109948;-73
2024/01/06 08:19:13;;;;;;;;;;;6.60;99.90;;;;;;7335091;19;109121;-72
2024/01/06 08:21:40;;;;;;;;;;;6.60;99.90;;;;;;7330056;19;111652;-68
2024/01/06 08:24:07;;;;;;;;;;;6.70;99.90;;;;;;7329075;19;109180;-70
2024/01/06 08:26:34;;;;;;;;;;;6.70;99.90;;;;;;7332914;19;111316;-68
2024/01/06 08:29:02;;;;;;;;;;;6.60;99.90;;;;;;7340499;19;111000;-93
2024/01/06 08:31:33;;;;;;;;;;;6.60;99.90;;;;;;7376907;19;108445;-93
2024/01/06 08:34:00;;;;;;;;;;;6.60;99.90;;;;;;7363582;19;107952;-91
2024/01/06 08:36:27;;;;;;;;;;;6.60;99.90;;;;;;7345571;19;110455;-95
2024/01/06 08:38:55;;;;;;;;;;;6.70;99.90;;;;;;7344149;19;113906;-95
2024/01/06 08:41:23;;;;;;;;;;;6.70;99.90;;;;;;7344134;19;109338;-92
2024/01/06 08:43:51;;;;;;;;;;;6.60;99.90;;;;;;7341478;19;111642;-93
2024/01/06 08:46:18;;;;;;;;;;;6.60;99.90;;;;;;7341448;19;110534;-93
2024/01/06 08:48:45;;;;;;;;;;;6.60;99.90;;;;;;7339165;19;109855;-93
2024/01/06 08:51:12;;;;;;;;;;;6.70;99.90;;;;;;7338805;19;108926;-94
2024/01/06 08:53:40;;;;;;;;;;;6.70;99.90;;;;;;7345066;19;110565;-94
2024/01/06 08:56:07;;;;;;;;;;;6.70;99.90;;;;;;7337290;19;112033;-93
2024/01/06 08:58:34;;;;;;;;;;;6.70;99.90;;;;;;7338874;19;109632;-92
2024/01/06 09:01:01;;;;;;;;;;;6.70;99.90;;;;;;7331846;19;109831;-93
2024/01/06 09:03:29;;;;;;;;;;;6.60;99.90;;;;;;7333589;19;110164;-92
2024/01/06 09:05:57;;;;;;;;;;;6.60;99.90;;;;;;7331231;19;111487;-90
2024/01/06 09:08:24;;;;;;;;;;;6.60;99.90;;;;;;7332838;19;109019;-90
2024/01/06 09:10:55;;;;;;;;;;;6.50;99.90;;;;;;7332566;19;111982;-94
2024/01/06 09:13:23;;;;;;;;;;;6.40;99.90;;;;;;7325193;19;111821;-92
2024/01/06 09:15:51;;;;;;;;;;;6.40;99.90;;;;;;7336748;19;108553;-90
2024/01/06 09:18:18;;;;;;;;;;;6.50;99.90;;;;;;7327388;19;111180;-90
2024/01/06 09:20:48;;;;;;;;;;;6.50;99.90;;;;;;7326794;19;108703;-92
2024/01/06 09:23:15;;;;;;;;;;;6.50;99.90;;;;;;7331395;19;108904;-91
2024/01/06 09:25:43;;;;;;;;;;;6.60;99.90;;;;;;7330460;19;110014;-91
2024/01/06 09:28:10;;;;;;;;;;;6.60;99.90;;;;;;7329539;19;108496;-90
2024/01/06 09:30:37;;;;;;;;;;;6.60;99.90;;;;;;7323015;19;109444;-91
2024/01/06 09:33:05;;;;;;;;;;;6.60;99.90;;;;;;7328155;19;110776;-92
2024/01/06 09:35:32;;;;;;;;;;;6.60;99.90;;;;;;7328109;19;109047;-94
2024/01/06 09:37:59;;;;;;;;;;;6.60;99.90;;;;;;7336711;19;110443;-93
2024/01/06 09:40:33;;;;;;;;;;;6.60;99.90;;;;;;7332395;19;109160;-89
2024/01/06 09:43:01;;;;;;;;;;;6.60;99.90;;;;;;7329405;19;111167;-86
2024/01/06 09:45:29;;;;;;;;;;;6.60;99.90;;;;;;7325813;19;110433;-87
2024/01/06 09:47:57;;;;;;;;;;;6.60;99.90;;;;;;7328961;19;108921;-88
2024/01/06 09:50:25;;;;;;;;;;;6.60;99.90;;;;;;7325299;19;109619;-88
2024/01/06 09:52:54;;;;;;;;;;;6.70;99.90;;;;;;7327703;19;109942;-90
2024/01/06 09:55:26;;;;;;;;;;;6.70;99.90;;;;;;7327500;19;108791;-89
2024/01/06 09:57:53;;;;;;;;;;;6.70;99.90;;;;;;7334655;19;109789;-89
2024/01/06 10:00:21;;;;;;;;;;;6.70;99.90;;;;;;7327572;19;110835;-89
2024/01/06 10:02:50;;;;;;;;;;;6.60;99.90;;;;;;7327399;19;109703;-89
2024/01/06 10:05:18;;;;;;;;;;;6.70;99.90;;;;;;7327657;19;110253;-89
2024/01/06 10:07:45;;;;;;;;;;;6.60;99.90;;;;;;7329139;19;108580;-90
2024/01/06 10:10:13;;;;;;;;;;;6.60;99.90;;;;;;7327674;19;108631;-90
2024/01/06 10:12:41;;;;;;;;;;;6.60;99.90;;;;;;7328730;19;113348;-89
2024/01/06 10:15:09;;;;;;;;;;;6.60;99.90;;;;;;7326023;19;108902;-89
2024/01/06 10:17:37;;;;;;;;;;;6.60;99.90;;;;;;7328479;19;111267;-88
2024/01/06 10:20:08;;;;;;;;;;;6.60;99.90;;;;;;7332564;19;109684;-88
2024/01/06 10:22:45;;;;;;;;;;;6.50;99.90;;;;;;7326916;19;109288;-88
2024/01/06 10:25:12;;;;;;;;;;;6.50;99.90;;;;;;7331293;19;111402;-89
2024/01/06 10:27:40;;;;;;;;;;;6.60;99.90;;;;;;7337632;19;108883;-89
2024/01/06 10:30:08;;;;;;;;;;;6.60;99.90;;;;;;7335443;19;109144;-89
2024/01/06 10:32:36;;;;;;;;;;;6.60;99.90;;;;;;7336491;19;109687;-90
2024/01/06 10:35:06;;;;;;;;;;;6.60;99.90;;;;;;7330134;19;110474;-88
2024/01/06 10:37:34;;;;;;;;;;;6.60;99.90;;;;;;7334256;19;109915;-89
2024/01/06 10:40:12;;;;;;;;;;;6.60;99.90;;;;;;7328901;19;114144;-87
2024/01/06 10:42:40;;;;;;;;;;;6.70;99.90;;;;;;7340810;19;109076;-87
2024/01/06 10:45:09;;;;;;;;;;;6.60;99.90;;;;;;7337193;19;110246;-87
2024/01/06 10:47:36;;;;;;;;;;;6.60;99.90;;;;;;7333477;19;108845;-87
2024/01/06 10:50:04;;;;;;;;;;;6.60;99.90;;;;;;7338492;19;109310;-87
2024/01/06 10:52:32;;;;;;;;;;;6.60;99.90;;;;;;7334939;19;111042;-88
2024/01/06 10:55:04;;;;;;;;;;;6.60;99.90;;;;;;7335111;19;118397;-89
2024/01/06 10:57:32;;;;;;;;;;;6.60;99.90;;;;;;7336561;19;109982;-88
2024/01/06 11:02:35;;;;;;;;;;;6.60;99.90;;;;;;7339549;19;109337;-88
2024/01/06 11:05:02;;;;;;;;;;;6.60;99.90;;;;;;7337880;19;108968;-87
2024/01/06 11:07:29;;;;;;;;;;;6.60;99.90;;;;;;7332591;19;109191;-85
2024/01/06 11:10:06;;;;;;;;;;;6.70;99.90;;;;;;7334878;19;109523;-87
2024/01/06 11:12:33;;;;;;;;;;;6.70;99.90;;;;;;7330185;19;109601;-87
2024/01/06 11:15:00;;;;;;;;;;;6.70;99.90;;;;;;7332124;19;109146;-86
2024/01/06 11:17:46;;;;;;;;;;;6.60;99.90;;;;;;7337169;19;108534;-92
2024/01/06 11:20:14;;;;;;;;;;;6.70;99.90;;;;;;7336503;19;113091;-91
2024/01/06 11:22:41;;;;;;;;;;;6.70;99.90;;;;;;7336256;19;108455;-92
2024/01/06 11:25:13;;;;;;;;;;;6.70;99.90;;;;;;7336785;19;111121;-92
2024/01/06 11:27:41;;;;;;;;;;;6.70;99.90;;;;;;7342808;19;113074;-91
2024/01/06 11:30:18;;;;;;;;;;;6.70;99.90;;;;;;7336061;19;111693;-91
2024/01/06 11:32:46;;;;;;;;;;;6.80;99.90;;;;;;7335845;19;110439;-90
2024/01/06 11:35:14;;;;;;;;;;;6.80;99.90;;;;;;7336361;19;109012;-91
2024/01/06 11:37:42;;;;;;;;;;;6.80;99.90;;;;;;7336820;19;112325;-90
2024/01/06 11:40:13;;;;;;;;;;;6.80;99.90;;;;;;7337654;19;113280;-90
2024/01/06 11:42:41;;;;;;;;;;;6.80;99.90;;;;;;7338346;19;108445;-93
2024/01/06 11:45:08;;;;;;;;;;;6.80;99.90;;;;;;7337966;19;111754;-91
2024/01/06 11:47:36;;;;;;;;;;;6.80;99.90;;;;;;7336996;19;109188;-91
2024/01/06 11:50:06;;;;;;;;;;;6.70;99.90;;;;;;7344255;19;109051;-91
2024/01/06 11:52:34;;;;;;;;;;;6.70;99.90;;;;;;7336913;19;112522;-90
2024/01/06 11:55:01;;;;;;;;;;;6.70;99.90;;;;;;7335334;19;108861;-92
2024/01/06 11:57:29;;;;;;;;;;;6.60;99.90;;;;;;7339077;19;109421;-91
2024/01/06 11:59:56;;;;;;;;;;;6.60;99.90;;;;;;7337460;19;112080;-92
2024/01/06 12:02:23;;;;;;;;;;;6.60;99.90;;;;;;7340567;19;108878;-90
2024/01/06 12:04:52;;;;;;;;;;;6.70;99.90;;;;;;7337946;19;111206;-91
2024/01/06 12:07:22;;;;;;;;;;;6.60;99.90;;;;;;7340419;19;109212;-91
2024/01/06 12:09:50;;;;;;;;;;;6.60;99.90;;;;;;7344178;19;108411;-91
2024/01/06 12:12:18;;;;;;;;;;;6.60;99.90;;;;;;7336562;19;109066;-92
2024/01/06 12:14:46;;;;;;;;;;;6.70;99.90;;;;;;7336678;19;108973;-91
2024/01/06 12:17:17;;;;;;;;;;;6.70;99.90;;;;;;7333858;19;110943;-93
2024/01/06 12:19:45;;;;;;;;;;;6.70;99.90;;;;;;7337817;19;111107;-92
2024/01/06 12:22:13;;;;;;;;;;;6.70;99.90;;;;;;7359428;19;108440;-94
2024/01/06 12:24:41;;;;;;;;;;;6.70;99.90;;;;;;7366567;19;108886;-93
2024/01/06 12:27:12;;;;;;;;;;;6.60;99.90;;;;;;7373968;19;111577;-92
2024/01/06 12:29:40;;;;;;;;;;;6.60;99.90;;;;;;7373746;19;108366;-92
2024/01/06 12:32:08;;;;;;;;;;;6.60;99.90;;;;;;7378025;19;107969;-93
2024/01/06 12:37:22;;;;;;;;;;;6.70;99.90;;;;;;7328012;19;110309;-73
2024/01/06 12:39:51;;;;;;;;;;;6.60;99.90;;;;;;7328839;19;109075;-68
2024/01/06 12:42:21;;;;;;;;;;;6.60;99.90;;;;;;7334318;19;109228;-71
2024/01/06 12:44:48;;;;;;;;;;;6.50;99.90;;;;;;7329711;19;109430;-71
2024/01/06 12:47:16;;;;;;;;;;;6.50;99.90;;;;;;7325231;19;109501;-67
2024/01/06 12:49:43;;;;;;;;;;;6.50;99.90;;;;;;7330305;19;108954;-68
2024/01/06 12:52:10;;;;;;;;;;;6.40;99.90;;;;;;7329607;19;109402;-68
2024/01/06 12:54:39;;;;;;;;;;;6.50;99.90;;;;;;7337745;19;109228;-67
2024/01/06 12:57:06;;;;;;;;;;;6.50;99.90;;;;;;7329877;19;109387;-67
2024/01/06 12:59:33;;;;;;;;;;;6.50;99.90;;;;;;7331288;19;109142;-67
2024/01/06 13:02:00;;;;;;;;;;;6.50;99.90;;;;;;7327718;19;109673;-67
2024/01/06 13:04:27;;;;;;;;;;;6.60;99.90;;;;;;7330080;19;108918;-67
2024/01/06 13:06:54;;;;;;;;;;;6.50;99.90;;;;;;7328819;19;110097;-67
2024/01/06 13:09:24;;;;;;;;;;;6.50;99.90;;;;;;7328100;19;108735;-67
2024/01/06 13:11:52;;;;;;;;;;;6.50;99.90;;;;;;7327371;19;108730;-67
2024/01/06 13:14:19;;;;;;;;;;;6.50;99.90;;;;;;7331564;19;109137;-67
2024/01/06 13:16:47;;;;;;;;;;;6.40;99.90;;;;;;7335124;19;109790;-67
2024/01/06 13:19:13;;;;;;;;;;;6.40;99.90;;;;;;7326930;19;109362;-68
2024/01/06 13:21:41;;;;;;;;;;;6.40;99.90;;;;;;7325249;19;108539;-67
2024/01/06 13:24:09;;;;;;;;;;;6.40;99.90;;;;;;7327842;19;108818;-67
2024/01/06 13:26:36;;;;;;;;;;;6.40;99.90;;;;;;7329779;19;109163;-67
2024/01/06 13:29:03;;;;;;;;;;;6.40;99.90;;;;;;7330136;19;108441;-67
2024/01/06 13:31:31;;;;;;;;;;;6.30;99.90;;;;;;7328078;19;110220;-67
2024/01/06 13:33:58;;;;;;;;;;;6.30;99.90;;;;;;7328487;19;109688;-67
2024/01/06 13:36:25;;;;;;;;;;;6.20;99.90;;;;;;7329419;19;110165;-67
2024/01/06 13:38:52;;;;;;;;;;;6.10;99.90;;;;;;7338472;19;108184;-67
2024/01/06 13:41:19;;;;;;;;;;;6.10;99.90;;;;;;7328699;19;108458;-67
2024/01/06 13:43:46;;;;;;;;;;;6.20;99.90;;;;;;7329238;19;108901;-67
2024/01/06 13:46:13;;;;;;;;;;;6.20;99.90;;;;;;7324346;19;110648;-67
2024/01/06 13:48:41;;;;;;;;;;;6.30;99.90;;;;;;7327967;19;108407;-67
2024/01/06 13:51:08;;;;;;;;;;;6.30;99.90;;;;;;7324889;19;110915;-67
2024/01/06 13:53:36;;;;;;;;;;;6.30;99.90;;;;;;7327655;19;111023;-67
2024/01/06 13:56:03;;;;;;;;;;;6.30;99.90;;;;;;7328920;19;109876;-67
2024/01/06 13:58:30;;;;;;;;;;;6.30;99.90;;;;;;7333304;19;108845;-67
2024/01/06 14:00:57;;;;;;;;;;;6.20;99.90;;;;;;7327682;19;108737;-67
2024/01/06 14:03:24;;;;;;;;;;;6.20;99.90;;;;;;7331674;19;109415;-67
2024/01/06 14:05:53;;;;;;;;;;;6.20;99.90;;;;;;7327554;19;110320;-67
2024/01/06 14:08:20;;;;;;;;;;;6.30;99.90;;;;;;7329243;19;109230;-67
2024/01/06 14:10:47;;;;;;;;;;;6.30;99.90;;;;;;7328992;19;108273;-67
2024/01/06 14:13:14;;;;;;;;;;;6.30;99.90;;;;;;7327765;19;109421;-67
2024/01/06 14:15:41;;;;;;;;;;;6.30;99.90;;;;;;7329444;19;110035;-67
2024/01/06 14:18:10;;;;;;;;;;;6.20;99.90;;;;;;7326922;19;110225;-67
2024/01/06 14:20:38;;;;;;;;;;;6.20;99.90;;;;;;7334231;19;109162;-67
2024/01/06 14:23:05;;;;;;;;;;;6.10;99.90;;;;;;7328039;19;108909;-67
2024/01/06 14:25:32;;;;;;;;;;;6.10;99.90;;;;;;7329404;19;110276;-67
2024/01/06 14:27:59;;;;;;;;;;;6.10;99.90;;;;;;7329281;19;108654;-67